createdAt,value
2019-02-10T00:01:16.316Z,100647.03
2019-02-10T00:03:45.652Z,100647.03
2019-02-10T00:06:14.929Z,100639.68
2019-02-10T00:08:44.242Z,100639.68
2019-02-10T00:11:13.498Z,100632.58
2019-02-10T00:13:42.839Z,100644.36
2019-02-10T00:16:22.288Z,100631.16
2019-02-10T00:18:51.573Z,100628.73
2019-02-10T00:21:20.829Z,100639.87
2019-02-10T00:23:50.067Z,100641.96
2019-02-10T00:26:19.539Z,100624.80
2019-02-10T00:28:48.814Z,100631.70
2019-02-10T00:31:18.057Z,100629.52
2019-02-10T00:33:47.318Z,100629.52
2019-02-10T00:36:16.566Z,100632.41
2019-02-10T00:38:45.952Z,100633.19
2019-02-10T00:41:15.175Z,100630.55
2019-02-10T00:43:44.482Z,100625.12
2019-02-10T00:46:13.750Z,100616.02
2019-02-10T00:48:43.088Z,100609.63
2019-02-10T00:51:12.320Z,100608.09
2019-02-10T00:53:41.628Z,100603.31
2019-02-10T00:56:10.888Z,100603.48
2019-02-10T00:58:40.225Z,100603.12
2019-02-10T01:01:09.486Z,100600.52
2019-02-10T01:03:38.722Z,100601.84
2019-02-10T01:06:08.016Z,100600.25
2019-02-10T01:08:37.234Z,100591.62
2019-02-10T01:11:06.516Z,100594.36
2019-02-10T01:13:35.753Z,100590.38
2019-02-10T01:16:05.024Z,100590.38
2019-02-10T01:18:34.300Z,100594.09
2019-02-10T01:21:03.594Z,100576.03
2019-02-10T01:23:32.886Z,100576.88
2019-02-10T01:26:02.168Z,100578.27
2019-02-10T01:28:31.544Z,100580.55
2019-02-10T01:31:00.846Z,100573.53
2019-02-10T01:33:30.117Z,100574.05
2019-02-10T01:35:59.360Z,100558.27
2019-02-10T01:38:28.594Z,100565.72
2019-02-10T01:40:57.882Z,100563.22
2019-02-10T01:43:27.208Z,100562.82
2019-02-10T01:45:56.480Z,100554.09
2019-02-10T01:48:27.372Z,100540.91
2019-02-10T01:50:55.074Z,100535.23
2019-02-10T01:53:24.298Z,100537.84
2019-02-10T01:55:53.586Z,100520.28
2019-02-10T01:58:22.901Z,100522.88
2019-02-10T02:00:52.180Z,100518.92
2019-02-10T02:03:21.457Z,100512.34
2019-02-10T02:05:50.732Z,100502.68
2019-02-10T02:08:19.980Z,100505.88
2019-02-10T02:10:49.268Z,100500.32
2019-02-10T02:13:18.552Z,100493.54
2019-02-10T02:15:47.798Z,100480.56
2019-02-10T02:18:17.195Z,100474.21
2019-02-10T02:20:46.456Z,100466.48
2019-02-10T02:23:15.772Z,100449.45
2019-02-10T02:25:45.058Z,100454.82
2019-02-10T02:28:14.374Z,100449.63
2019-02-10T02:30:43.598Z,100444.52
2019-02-10T02:33:12.871Z,100442.94
2019-02-10T02:35:42.227Z,100447.84
2019-02-10T02:38:11.470Z,100433.85
2019-02-10T02:40:40.756Z,100434.70
2019-02-10T02:43:10.026Z,100431.61
2019-02-10T02:45:39.246Z,100433.36
2019-02-10T02:48:08.523Z,100432.50
2019-02-10T02:50:37.763Z,100425.45
2019-02-10T02:53:07.037Z,100424.23
2019-02-10T02:55:36.276Z,100420.39
2019-02-10T02:58:05.554Z,100415.25
2019-02-10T03:00:34.822Z,100418.84
2019-02-10T03:03:04.094Z,100401.86
2019-02-10T03:05:33.348Z,100401.06
2019-02-10T03:08:02.588Z,100403.34
2019-02-10T03:10:31.872Z,100398.50
2019-02-10T03:13:01.125Z,100394.16
2019-02-10T03:15:30.372Z,100392.44
2019-02-10T03:17:59.628Z,100388.06
2019-02-10T03:20:28.897Z,100376.81
2019-02-10T03:22:58.250Z,100376.81
2019-02-10T03:25:27.568Z,100378.09
2019-02-10T03:27:56.932Z,100367.53
2019-02-10T03:30:26.203Z,100368.84
2019-02-10T03:32:55.523Z,100366.61
2019-02-10T03:35:24.792Z,100360.03
2019-02-10T03:37:54.080Z,100352.63
2019-02-10T03:40:23.362Z,100347.79
2019-02-10T03:42:52.611Z,100354.27
2019-02-10T03:45:21.946Z,100351.64
2019-02-10T03:47:51.198Z,100346.80
2019-02-10T03:50:20.461Z,100338.87
2019-02-10T03:52:49.692Z,100331.89
2019-02-10T03:55:18.944Z,100326.20
2019-02-10T03:57:48.218Z,100320.08
2019-02-10T04:00:17.556Z,100310.47
2019-02-10T04:02:46.776Z,100291.69
2019-02-10T04:05:16.018Z,100291.69
2019-02-10T04:07:45.278Z,100292.44
2019-02-10T04:10:14.508Z,100287.23
2019-02-10T04:12:43.824Z,100281.52
2019-02-10T04:15:13.086Z,100275.92
2019-02-10T04:17:42.400Z,100274.61
2019-02-10T04:20:11.665Z,100270.30
2019-02-10T04:22:41.042Z,100266.81
2019-02-10T04:25:10.327Z,100261.16
2019-02-10T04:27:39.585Z,100250.63
2019-02-10T04:30:09.633Z,100244.52
2019-02-10T04:32:38.556Z,100245.30
2019-02-10T04:35:07.780Z,100240.86
2019-02-10T04:37:45.375Z,100233.34
2019-02-10T04:40:06.301Z,100225.02
2019-02-10T04:42:35.655Z,100191.94
2019-02-10T04:45:04.939Z,100191.94
2019-02-10T04:47:34.238Z,100186.67
2019-02-10T04:50:03.569Z,100188.84
2019-02-10T04:52:32.866Z,100200.69
2019-02-10T04:55:02.147Z,100185.83
2019-02-10T04:57:31.434Z,100180.41
2019-02-10T05:00:00.746Z,100164.61
2019-02-10T05:02:30.081Z,100164.55
2019-02-10T05:04:59.314Z,100158.57
2019-02-10T05:07:28.588Z,100154.30
2019-02-10T05:09:57.952Z,100147.38
2019-02-10T05:12:27.264Z,100142.96
2019-02-10T05:14:56.504Z,100147.98
2019-02-10T05:17:25.764Z,100140.94
2019-02-10T05:19:55.055Z,100144.99
2019-02-10T05:22:24.328Z,100138.09
2019-02-10T05:24:53.602Z,100128.53
2019-02-10T05:27:22.959Z,100120.21
2019-02-10T05:29:52.222Z,100111.61
2019-02-10T05:32:21.459Z,100101.55
2019-02-10T05:34:50.788Z,100090.66
2019-02-10T05:37:20.058Z,100083.77
2019-02-10T05:39:49.337Z,100071.58
2019-02-10T05:42:18.660Z,100073.36
2019-02-10T05:44:47.988Z,100060.67
2019-02-10T05:47:19.205Z,100058.50
2019-02-10T05:49:46.559Z,100048.87
2019-02-10T05:52:15.868Z,100050.25
2019-02-10T05:54:45.184Z,100043.72
2019-02-10T05:57:14.458Z,100038.92
2019-02-10T05:59:43.780Z,100029.20
2019-02-10T06:02:21.207Z,100008.16
2019-02-10T06:04:50.460Z,100006.84
2019-02-10T06:07:19.860Z,99996.67
2019-02-10T06:09:49.272Z,99983.95
2019-02-10T06:12:18.571Z,99972.19
2019-02-10T06:14:47.806Z,99965.26
2019-02-10T06:17:17.033Z,99974.92
2019-02-10T06:19:46.392Z,99964.17
2019-02-10T06:22:15.645Z,99957.75
2019-02-10T06:24:45.084Z,99953.84
2019-02-10T06:27:14.362Z,99946.61
2019-02-10T06:29:43.656Z,99929.12
2019-02-10T06:32:12.896Z,99929.34
2019-02-10T06:34:42.136Z,99916.70
2019-02-10T06:37:11.451Z,99924.28
2019-02-10T06:39:40.779Z,99922.58
2019-02-10T06:42:10.296Z,99910.55
2019-02-10T06:44:39.460Z,99895.31
2019-02-10T06:47:08.701Z,99887.96
2019-02-10T06:49:37.970Z,99882.31
2019-02-10T06:52:07.238Z,99873.62
2019-02-10T06:54:37.326Z,99865.45
2019-02-10T06:57:06.604Z,99851.11
2019-02-10T06:59:54.991Z,99852.58
2019-02-10T07:02:36.212Z,99844.39
2019-02-10T07:05:06.958Z,99839.59
2019-02-10T07:07:36.220Z,99827.06
2019-02-10T07:10:05.974Z,99813.58
2019-02-10T07:12:53.619Z,99804.11
2019-02-10T07:15:59.238Z,99797.81
2019-02-10T07:19:04.986Z,99790.97
2019-02-10T07:21:37.461Z,99776.12
2019-02-10T07:24:46.520Z,99776.17
2019-02-10T07:27:35.706Z,99772.70
2019-02-10T07:30:44.333Z,99749.97
2019-02-10T07:33:20.585Z,99744.19
2019-02-10T07:36:17.497Z,99735.41
2019-02-10T07:39:24.837Z,99714.39
2019-02-10T07:42:44.650Z,99698.90
2019-02-10T07:46:00.864Z,99693.60
2019-02-10T07:49:10.756Z,99672.23
2019-02-10T07:52:15.476Z,99663.73
2019-02-10T07:55:13.364Z,99646.53
2019-02-10T07:58:24.713Z,99639.42
2019-02-10T08:01:22.986Z,99622.30
2019-02-10T08:04:40.345Z,99610.81
2019-02-10T08:07:59.737Z,99600.30
2019-02-10T08:11:10.428Z,99586.99
2019-02-10T08:13:59.357Z,99572.41
2019-02-10T08:16:54.981Z,99561.35
2019-02-10T08:19:58.221Z,99553.58
2019-02-10T08:23:03.932Z,99539.72
2019-02-10T08:26:00.137Z,99536.36
2019-02-10T08:28:56.003Z,99526.13
2019-02-10T08:32:04.066Z,99506.60
2019-02-10T08:34:51.736Z,99509.61
2019-02-10T08:37:56.170Z,99496.75
2019-02-10T08:41:01.400Z,99485.14
2019-02-10T08:43:57.160Z,99478.56
2019-02-10T08:46:52.748Z,99475.80
2019-02-10T08:49:48.383Z,99459.64
2019-02-10T08:52:35.152Z,99455.14
2019-02-10T08:55:04.526Z,99448.05
2019-02-10T08:57:33.753Z,99429.63
2019-02-10T09:00:03.030Z,99415.03
2019-02-10T09:02:32.272Z,99416.01
2019-02-10T09:05:01.530Z,99415.67
2019-02-10T09:07:30.742Z,99412.38
2019-02-10T09:10:00.028Z,99397.98
2019-02-10T09:12:29.264Z,99380.36
2019-02-10T09:14:58.521Z,99375.33
2019-02-10T09:17:27.812Z,99370.01
2019-02-10T09:19:57.047Z,99370.65
2019-02-10T09:22:26.372Z,99367.92
2019-02-10T09:24:55.620Z,99359.83
2019-02-10T09:27:24.856Z,99342.19
2019-02-10T09:29:54.145Z,99340.78
2019-02-10T09:32:23.410Z,99320.36
2019-02-10T09:34:52.691Z,99305.81
2019-02-10T09:37:22.050Z,99306.13
2019-02-10T09:39:51.486Z,99293.72
2019-02-10T09:42:20.745Z,99291.41
2019-02-10T09:44:49.986Z,99286.45
2019-02-10T09:47:19.218Z,99268.81
2019-02-10T09:49:48.443Z,99270.53
2019-02-10T09:52:17.687Z,99251.53
2019-02-10T09:55:06.318Z,99241.41
2019-02-10T09:57:35.574Z,99238.98
2019-02-10T10:00:05.653Z,99241.88
2019-02-10T10:02:34.936Z,99227.59
2019-02-10T10:05:04.571Z,99232.10
2019-02-10T10:07:33.845Z,99221.56
2019-02-10T10:10:03.172Z,99208.23
2019-02-10T10:12:32.451Z,99217.82
2019-02-10T10:15:01.674Z,99200.53
2019-02-10T10:17:30.960Z,99180.84
2019-02-10T10:20:00.266Z,99180.84
2019-02-10T10:22:29.612Z,99197.81
2019-02-10T10:25:00.571Z,99194.16
2019-02-10T10:27:28.130Z,99182.98
2019-02-10T10:29:57.451Z,99190.58
2019-02-10T10:32:26.721Z,99182.20
2019-02-10T10:34:56.008Z,99175.17
2019-02-10T10:37:25.249Z,99176.77
2019-02-10T10:39:54.528Z,99171.26
2019-02-10T10:42:23.871Z,99153.66
2019-02-10T10:44:53.148Z,99150.85
2019-02-10T10:47:22.371Z,99158.69
2019-02-10T10:49:51.690Z,99152.57
2019-02-10T10:52:20.941Z,99133.58
2019-02-10T10:54:50.292Z,99135.74
2019-02-10T10:57:19.537Z,99119.83
2019-02-10T10:59:48.767Z,99119.83
2019-02-10T11:02:17.998Z,99123.06
2019-02-10T11:04:47.243Z,99118.39
2019-02-10T11:07:16.476Z,99112.52
2019-02-10T11:09:45.787Z,99123.39
2019-02-10T11:12:15.049Z,99116.47
2019-02-10T11:14:44.449Z,99096.70
2019-02-10T11:17:14.938Z,99081.69
2019-02-10T11:19:43.127Z,99079.91
2019-02-10T11:22:12.380Z,99082.50
2019-02-10T11:24:41.690Z,99066.22
2019-02-10T11:27:13.854Z,99051.70
2019-02-10T11:29:43.195Z,99055.44
2019-02-10T11:32:12.424Z,99055.44
2019-02-10T11:34:46.177Z,99041.88
2019-02-10T11:37:10.964Z,99020.64
2019-02-10T11:39:43.741Z,99038.47
2019-02-10T11:42:09.592Z,99018.36
2019-02-10T11:44:38.851Z,99018.36
2019-02-10T11:47:08.164Z,99017.15
2019-02-10T11:49:37.417Z,99016.27
2019-02-10T11:52:06.679Z,99008.63
2019-02-10T11:54:35.978Z,99008.63
2019-02-10T11:57:05.249Z,99006.55
2019-02-10T11:59:34.555Z,98989.45
2019-02-10T12:02:03.835Z,98977.36
2019-02-10T12:04:33.102Z,98986.88
2019-02-10T12:07:02.366Z,98986.88
2019-02-10T12:09:31.595Z,98973.66
2019-02-10T12:12:00.852Z,98965.93
2019-02-10T12:14:30.105Z,98955.36
2019-02-10T12:16:59.431Z,98960.05
2019-02-10T12:19:28.735Z,98970.45
2019-02-10T12:21:58.011Z,98838.05
2019-02-10T12:24:27.234Z,98960.05
2019-02-10T12:26:56.680Z,98960.05
2019-02-10T12:29:25.895Z,98946.47
2019-02-10T12:31:55.155Z,98942.52
2019-02-10T12:34:24.394Z,98957.92
2019-02-10T12:36:53.651Z,98946.88
2019-02-10T12:39:22.921Z,98940.68
2019-02-10T12:41:52.231Z,98960.70
2019-02-10T12:44:21.584Z,98920.52
2019-02-10T12:46:50.807Z,98920.52
2019-02-10T12:49:20.085Z,98921.11
2019-02-10T12:51:49.334Z,98916.67
2019-02-10T12:54:18.630Z,98891.89
2019-02-10T12:56:47.873Z,98919.83
2019-02-10T12:59:17.153Z,98900.86
2019-02-10T13:01:46.406Z,98902.55
2019-02-10T13:04:15.788Z,98892.18
2019-02-10T13:06:45.039Z,98878.33
2019-02-10T13:09:14.313Z,98878.33
2019-02-10T13:11:43.593Z,98901.23
2019-02-10T13:14:12.865Z,98904.74
2019-02-10T13:16:42.166Z,98888.14
2019-02-10T13:19:11.432Z,98866.93
2019-02-10T13:21:40.694Z,98866.93
2019-02-10T13:24:09.964Z,98880.50
2019-02-10T13:26:39.228Z,98875.81
2019-02-10T13:29:08.526Z,98865.89
2019-02-10T13:31:37.760Z,98859.30
2019-02-10T13:34:07.025Z,98857.41
2019-02-10T13:36:36.366Z,98847.53
2019-02-10T13:39:07.564Z,98843.17
2019-02-10T13:41:36.634Z,98842.37
2019-02-10T13:44:06.652Z,98842.37
2019-02-10T13:46:35.884Z,98847.73
2019-02-10T13:49:05.185Z,98836.61
2019-02-10T13:51:34.484Z,98841.89
2019-02-10T13:54:03.793Z,98846.12
2019-02-10T13:56:33.138Z,98826.89
2019-02-10T13:59:02.408Z,98833.69
2019-02-10T14:01:31.661Z,98830.57
2019-02-10T14:04:00.926Z,98837.53
2019-02-10T14:06:30.153Z,98825.84
2019-02-10T14:08:59.428Z,98825.84
2019-02-10T14:11:28.693Z,98834.97
2019-02-10T14:13:57.944Z,98836.84
2019-02-10T14:16:27.184Z,98847.41
2019-02-10T14:18:57.070Z,98847.41
2019-02-10T14:21:26.359Z,98829.67
2019-02-10T14:23:55.670Z,98833.31
2019-02-10T14:26:24.942Z,98851.52
2019-02-10T14:28:54.224Z,98818.31
2019-02-10T14:31:23.517Z,98852.91
2019-02-10T14:33:52.843Z,98847.06
2019-02-10T14:36:22.144Z,98851.88
2019-02-10T14:38:51.460Z,98849.02
2019-02-10T14:41:20.724Z,98852.22
2019-02-10T14:43:49.942Z,98856.34
2019-02-10T14:46:19.238Z,98845.20
2019-02-10T14:48:48.553Z,98844.24
2019-02-10T14:51:17.812Z,98845.75
2019-02-10T14:53:47.166Z,98848.76
2019-02-10T14:56:16.495Z,98863.50
2019-02-10T14:58:45.742Z,98845.75
2019-02-10T15:01:15.091Z,98854.05
2019-02-10T15:03:44.366Z,98849.23
2019-02-10T15:06:13.770Z,98862.36
2019-02-10T15:08:43.040Z,98864.34
2019-02-10T15:11:13.195Z,98863.15
2019-02-10T15:13:42.487Z,98866.47
2019-02-10T15:16:11.772Z,98851.88
2019-02-10T15:18:44.360Z,98860.64
2019-02-10T15:21:13.691Z,98863.04
2019-02-10T15:23:42.913Z,98866.81
2019-02-10T15:26:12.234Z,98868.33
2019-02-10T15:28:41.587Z,98869.85
2019-02-10T15:31:10.829Z,98853.45
2019-02-10T15:33:40.142Z,98853.45
2019-02-10T15:36:09.524Z,98860.89
2019-02-10T15:38:38.764Z,98862.98
2019-02-10T15:41:08.166Z,98856.38
2019-02-10T15:43:37.472Z,98859.13
2019-02-10T15:46:06.754Z,98859.69
2019-02-10T15:48:35.947Z,98867.61
2019-02-10T15:51:05.208Z,98872.89
2019-02-10T15:53:34.574Z,98870.64
2019-02-10T15:56:03.816Z,98870.64
2019-02-10T15:58:33.125Z,98873.09
2019-02-10T16:01:02.385Z,98885.08
2019-02-10T16:03:31.663Z,98881.20
2019-02-10T16:06:00.988Z,98881.20
2019-02-10T16:08:30.256Z,98878.56
2019-02-10T16:10:59.947Z,98887.60
2019-02-10T16:13:29.083Z,98887.60
2019-02-10T16:15:58.442Z,98888.44
2019-02-10T16:18:27.739Z,98889.20
2019-02-10T16:20:56.982Z,98895.13
2019-02-10T16:23:26.307Z,98886.20
2019-02-10T16:25:55.612Z,98886.20
2019-02-10T16:28:27.412Z,98875.64
2019-02-10T16:30:56.672Z,98875.64
2019-02-10T16:33:26.084Z,98889.47
2019-02-10T16:35:55.391Z,98883.27
2019-02-10T16:38:27.777Z,98883.27
2019-02-10T16:40:54.270Z,98893.44
2019-02-10T16:43:23.824Z,98892.41
2019-02-10T16:45:53.214Z,98896.08
2019-02-10T16:48:22.705Z,98907.02
2019-02-10T16:50:52.574Z,98906.44
2019-02-10T16:53:22.260Z,98906.44
2019-02-10T16:55:51.790Z,98895.63
2019-02-10T16:58:21.049Z,98898.16
2019-02-10T17:00:50.416Z,98913.80
2019-02-10T17:03:20.115Z,98913.60
2019-02-10T17:05:49.400Z,98922.09
2019-02-10T17:08:18.910Z,98922.09
2019-02-10T17:10:48.083Z,98915.87
2019-02-10T17:13:19.842Z,98923.34
2019-02-10T17:15:49.102Z,98923.34
2019-02-10T17:18:18.445Z,98931.34
2019-02-10T17:20:47.774Z,98937.72
2019-02-10T17:23:17.249Z,98931.24
2019-02-10T17:25:46.548Z,98924.72
2019-02-10T17:28:16.010Z,98918.52
2019-02-10T17:30:45.240Z,98920.22
2019-02-10T17:33:14.585Z,98925.11
2019-02-10T17:35:43.904Z,98930.38
2019-02-10T17:38:13.238Z,98927.74
2019-02-10T17:40:56.970Z,98924.72
2019-02-10T17:43:28.246Z,98924.72
2019-02-10T17:45:55.543Z,98932.06
2019-02-10T17:48:25.014Z,98932.06
2019-02-10T17:50:54.242Z,98924.36
2019-02-10T17:53:23.586Z,98934.80
2019-02-10T17:55:52.958Z,98935.36
2019-02-10T17:58:22.299Z,98942.98
2019-02-10T18:00:51.614Z,98969.45
2019-02-10T18:03:20.996Z,98954.91
2019-02-10T18:05:52.973Z,98971.17
2019-02-10T18:08:23.022Z,98972.27
2019-02-10T18:10:51.748Z,98969.41
2019-02-10T18:13:21.064Z,98975.58
2019-02-10T18:16:08.608Z,98987.38
2019-02-10T18:18:57.220Z,98992.34
2019-02-10T18:21:51.174Z,99003.23
2019-02-10T18:24:45.288Z,99003.23
2019-02-10T18:27:42.432Z,99002.06
2019-02-10T18:30:31.656Z,99013.14
2019-02-10T18:33:18.578Z,99006.66
2019-02-10T18:36:05.815Z,98998.94
2019-02-10T18:38:57.164Z,99020.41
2019-02-10T18:42:00.693Z,99012.30
2019-02-10T18:44:39.830Z,99013.85
2019-02-10T18:47:31.193Z,99014.39
2019-02-10T18:50:12.856Z,99017.13
2019-02-10T18:53:10.275Z,99017.28
2019-02-10T18:56:00.736Z,99011.72
2019-02-10T18:58:54.465Z,99011.72
2019-02-10T19:01:36.052Z,99032.47
2019-02-10T19:04:20.278Z,99057.08
2019-02-10T19:07:07.419Z,99027.39
2019-02-10T19:09:58.716Z,99035.27
2019-02-10T19:12:50.071Z,99049.15
2019-02-10T19:15:41.240Z,99041.17
2019-02-10T19:18:28.363Z,99048.22
2019-02-10T19:21:09.435Z,99053.55
2019-02-10T19:23:47.102Z,99054.23
2019-02-10T19:26:34.196Z,99057.81
2019-02-10T19:29:25.720Z,99045.19
2019-02-10T19:32:00.857Z,99053.58
2019-02-10T19:34:47.665Z,99050.08
2019-02-10T19:37:42.116Z,99061.63
2019-02-10T19:40:24.792Z,99058.62
2019-02-10T19:43:12.104Z,99074.39
2019-02-10T19:46:00.507Z,99069.98
2019-02-10T19:48:50.529Z,99087.60
2019-02-10T19:51:28.456Z,99102.06
2019-02-10T19:54:16.827Z,99104.38
2019-02-10T19:56:56.802Z,99102.90
2019-02-10T19:59:57.344Z,99122.55
2019-02-10T20:02:54.476Z,99119.28
2019-02-10T20:06:01.147Z,99111.91
2019-02-10T20:08:43.977Z,99123.70
2019-02-10T20:11:38.148Z,99142.22
2019-02-10T20:14:32.486Z,99141.30
2019-02-10T20:17:19.686Z,99148.77
2019-02-10T20:20:05.192Z,99156.19
2019-02-10T20:22:56.503Z,99161.67
2019-02-10T20:25:43.472Z,99182.27
2019-02-10T20:28:21.849Z,99180.39
2019-02-10T20:31:06.142Z,99186.16
2019-02-10T20:33:49.285Z,99206.83
2019-02-10T20:36:30.074Z,99196.33
2019-02-10T20:39:06.526Z,99194.77
2019-02-10T20:41:49.197Z,99206.12
2019-02-10T20:44:30.126Z,99210.38
2019-02-10T20:47:06.272Z,99229.33
2019-02-10T20:49:57.726Z,99225.02
2019-02-10T20:52:35.934Z,99235.78
2019-02-10T20:55:23.342Z,99253.22
2019-02-10T20:58:17.493Z,99257.24
2019-02-10T21:01:08.152Z,99266.61
2019-02-10T21:04:02.275Z,99268.65
2019-02-10T21:06:47.192Z,99281.71
2019-02-10T21:09:34.002Z,99293.78
2019-02-10T21:12:20.971Z,99290.20
2019-02-10T21:15:21.010Z,99300.83
2019-02-10T21:18:12.030Z,99304.89
2019-02-10T21:21:13.078Z,99328.30
2019-02-10T21:23:59.012Z,99326.77
2019-02-10T21:26:36.520Z,99331.47
2019-02-10T21:29:33.883Z,99350.58
2019-02-10T21:32:31.388Z,99347.70
2019-02-10T21:35:25.782Z,99360.17
2019-02-10T21:38:01.105Z,99393.54
2019-02-10T21:40:55.331Z,99395.86
2019-02-10T21:43:43.968Z,99411.89
2019-02-10T21:46:30.602Z,99420.48
2019-02-10T21:49:11.574Z,99413.89
2019-02-10T21:51:41.145Z,99409.22
2019-02-10T21:54:10.655Z,99432.03
2019-02-10T21:56:40.084Z,99422.13
2019-02-10T21:59:09.306Z,99427.44
2019-02-10T22:01:38.590Z,99443.44
2019-02-10T22:04:07.918Z,99453.56
2019-02-10T22:06:37.192Z,99459.30
2019-02-10T22:09:07.196Z,99468.08
2019-02-10T22:11:36.422Z,99457.64
2019-02-10T22:14:05.676Z,99461.99
2019-02-10T22:16:35.051Z,99469.35
2019-02-10T22:19:04.391Z,99465.46
2019-02-10T22:21:33.648Z,99476.44
2019-02-10T22:24:02.971Z,99492.51
2019-02-10T22:26:32.270Z,99485.74
2019-02-10T22:29:01.592Z,99510.88
2019-02-10T22:31:30.854Z,99503.02
2019-02-10T22:34:00.171Z,99517.05
2019-02-10T22:36:29.400Z,99523.48
2019-02-10T22:38:58.661Z,99531.31
2019-02-10T22:41:27.920Z,99539.56
2019-02-10T22:43:57.274Z,99563.22
2019-02-10T22:46:26.554Z,99550.80
2019-02-10T22:48:55.830Z,99567.83
2019-02-10T22:51:25.156Z,99557.20
2019-02-10T22:53:54.472Z,99567.55
2019-02-10T22:56:23.722Z,99587.55
2019-02-10T22:58:53.008Z,99601.80
2019-02-10T23:01:22.236Z,99607.04
2019-02-10T23:03:51.503Z,99606.90
2019-02-10T23:06:20.780Z,99617.78
2019-02-10T23:08:50.021Z,99621.64
2019-02-10T23:11:19.268Z,99642.51
2019-02-10T23:13:48.544Z,99640.67
2019-02-10T23:16:17.802Z,99656.66
2019-02-10T23:18:47.114Z,99660.51
2019-02-10T23:21:16.394Z,99682.98
2019-02-10T23:23:45.680Z,99664.02
2019-02-10T23:26:14.967Z,99670.97
2019-02-10T23:28:44.248Z,99688.37
2019-02-10T23:31:13.540Z,99691.81
2019-02-10T23:33:42.932Z,99697.30
2019-02-10T23:36:12.204Z,99714.00
2019-02-10T23:38:41.451Z,99719.46
2019-02-10T23:41:10.760Z,99724.29
2019-02-10T23:43:40.020Z,99736.34
2019-02-10T23:46:09.464Z,99734.53
2019-02-10T23:48:38.900Z,99754.17
2019-02-10T23:51:08.176Z,99765.31
2019-02-10T23:53:37.478Z,99759.78
2019-02-10T23:56:06.742Z,99766.23
2019-02-10T23:58:35.968Z,99779.29
